Auburndale, Wisconsin
Current Conditions -  °F | °C
As of 6:54 PM on Sunday 21 Dec 2014 (Local Time) from KMFI Reporting Station
Haze Haze  
Wind Chill: -5°   Ceiling: 200
Heat Index:   Visibility: 1.5mi
Dew Point:   Wind: 16mph
Humidity: 92%   Direction: 160°SSE
Pressure: 29.86"   Gusts: NA
Location:  44.63°N, 90.01°W
Report Text: KMFI 220054Z AUTO 16014KT 1 1/2SM BR OVC002 01/00 A2986 RMK AO2 SLP127 T00110000
Loading
Personal Weather Stations






























Interactive Weather Map New forecast layout! Learn more

10-Day Weather Forecast

Advertisements
Track Severe Weather on mobile